Terminal Aerodrome Forecast
Issued by NWS

Home | Current Version | Previous Version | Text Only | Print | Product List | Glossary On
Versions: 1 2 3 4 5 6 7 8 9 10 11 12 13 14 15 16 17 18
000
FTUS46 KSEW 011700 RRA
TAFPAE
TAF
KPAE 011745Z 0118/0218 16006KT P6SM OVC015
     FM011900 21007KT P6SM BKN020
     FM012100 34006KT P6SM BKN045
     FM020400 03005KT P6SM BKN035
     FM020800 VRB04KT P6SM OVC020
     FM021100 VRB04KT P6SM OVC010=

USA.gov is the U.S. government's official web portal to all federal, state and local government web resources and services.